Time;durP1;ratioP1;P1;durP2;ratioP2;P2;SDS_P1;SDS_P2;PMS_P1;PMS_P2;Temp;Humidity;BMP_temperature;BMP_pressure;BME280_temperature;BME280_humidity;BME280_pressure;Samples;Min_cycle;Max_cycle;Signal;HPM_P1;HPM_P2
2022/08/26 00:00:40;;;;;;;61.30;4.70;;;;;;;;;;5078346;28;20534;-68
2022/08/26 00:03:08;;;;;;;61.57;5.00;;;;;;;;;;5078617;28;20558;-68
2022/08/26 00:05:35;;;;;;;59.37;4.00;;;;;;;;;;5079025;28;20554;-67
2022/08/26 00:08:04;;;;;;;60.60;4.80;;;;;;;;;;5078821;28;20458;-68
2022/08/26 00:10:31;;;;;;;59.97;4.60;;;;;;;;;;5078096;28;20451;-67
2022/08/26 00:12:58;;;;;;;61.20;5.00;;;;;;;;;;5078222;28;20990;-67
2022/08/26 00:15:26;;;;;;;60.60;4.47;;;;;;;;;;5077742;28;20448;-68
2022/08/26 00:17:53;;;;;;;63.07;4.73;;;;;;;;;;5078249;28;20760;-68
2022/08/26 00:20:22;;;;;;;60.13;4.37;;;;;;;;;;5078144;28;20447;-68
2022/08/26 00:22:49;;;;;;;60.00;4.73;;;;;;;;;;5078027;28;20523;-68
2022/08/26 00:25:17;;;;;;;60.53;5.30;;;;;;;;;;5078561;28;20511;-68
2022/08/26 00:27:46;;;;;;;59.73;4.23;;;;;;;;;;5078328;28;20450;-68
2022/08/26 00:30:15;;;;;;;60.27;4.50;;;;;;;;;;5078252;28;20439;-67
2022/08/26 00:32:42;;;;;;;61.80;6.53;;;;;;;;;;5077282;28;20521;-68
2022/08/26 00:35:11;;;;;;;62.37;6.07;;;;;;;;;;5077355;28;20450;-67
2022/08/26 00:37:39;;;;;;;60.77;5.30;;;;;;;;;;5077569;28;20827;-67
2022/08/26 00:40:06;;;;;;;60.47;4.50;;;;;;;;;;5077181;28;20927;-68
2022/08/26 00:42:35;;;;;;;60.10;4.57;;;;;;;;;;5077667;28;20475;-67
2022/08/26 00:45:02;;;;;;;61.40;5.70;;;;;;;;;;5077805;28;20443;-68
2022/08/26 00:47:32;;;;;;;60.43;4.73;;;;;;;;;;5077379;28;20466;-68
2022/08/26 00:50:00;;;;;;;60.87;4.87;;;;;;;;;;5076986;28;20454;-68
2022/08/26 00:52:27;;;;;;;61.87;4.63;;;;;;;;;;5077446;28;20591;-68
2022/08/26 00:55:00;;;;;;;60.47;5.10;;;;;;;;;;5077487;28;20550;-67
2022/08/26 00:57:27;;;;;;;62.30;5.17;;;;;;;;;;5078674;28;20538;-68
2022/08/26 00:59:57;;;;;;;61.63;5.80;;;;;;;;;;5077651;28;20450;-68
2022/08/26 01:02:24;;;;;;;62.73;5.83;;;;;;;;;;5078318;28;20583;-68
2022/08/26 01:04:52;;;;;;;63.50;6.37;;;;;;;;;;5076059;28;20538;-68
2022/08/26 01:07:20;;;;;;;62.73;5.43;;;;;;;;;;5078263;28;20525;-68
2022/08/26 01:09:47;;;;;;;60.90;5.67;;;;;;;;;;5077421;28;20457;-67
2022/08/26 01:12:15;;;;;;;60.70;5.73;;;;;;;;;;5076941;28;21014;-68
2022/08/26 01:14:44;;;;;;;62.67;5.77;;;;;;;;;;5076841;28;20454;-68
2022/08/26 01:17:14;;;;;;;61.27;5.63;;;;;;;;;;5077111;28;20451;-68
2022/08/26 01:19:42;;;;;;;61.70;5.77;;;;;;;;;;5076968;28;20450;-67
2022/08/26 01:22:11;;;;;;;61.80;5.03;;;;;;;;;;5077156;28;20470;-67
2022/08/26 01:24:40;;;;;;;61.13;5.50;;;;;;;;;;5077461;28;20450;-68
2022/08/26 01:27:09;;;;;;;60.93;5.90;;;;;;;;;;5077480;28;20450;-68
2022/08/26 01:29:38;;;;;;;60.27;4.67;;;;;;;;;;5076616;28;20495;-68
2022/08/26 01:32:07;;;;;;;61.27;5.23;;;;;;;;;;5076877;28;20495;-68
2022/08/26 01:34:35;;;;;;;63.20;5.50;;;;;;;;;;5076639;28;20818;-68
2022/08/26 01:37:03;;;;;;;63.10;5.90;;;;;;;;;;5076982;28;20439;-68
2022/08/26 01:39:31;;;;;;;62.57;5.77;;;;;;;;;;5076484;28;20458;-69
2022/08/26 01:42:00;;;;;;;61.70;4.77;;;;;;;;;;5076356;28;20841;-68
2022/08/26 01:44:30;;;;;;;60.90;5.03;;;;;;;;;;5076623;28;20878;-68
2022/08/26 01:46:58;;;;;;;61.90;5.70;;;;;;;;;;5076121;28;20541;-68
2022/08/26 01:49:26;;;;;;;62.77;6.03;;;;;;;;;;5076191;28;20537;-67
2022/08/26 01:51:54;;;;;;;61.37;5.30;;;;;;;;;;5076755;28;20479;-68
2022/08/26 01:54:21;;;;;;;60.40;4.97;;;;;;;;;;5076020;28;20453;-68
2022/08/26 01:56:49;;;;;;;60.93;5.50;;;;;;;;;;5076642;28;20443;-68
2022/08/26 01:59:19;;;;;;;62.00;6.13;;;;;;;;;;5076192;28;20532;-68
2022/08/26 02:01:46;;;;;;;62.50;6.20;;;;;;;;;;5076067;28;20506;-68
2022/08/26 02:04:16;;;;;;;62.20;6.00;;;;;;;;;;5076333;28;20453;-68
2022/08/26 02:06:43;;;;;;;70.70;7.00;;;;;;;;;;5076400;28;20444;-68
2022/08/26 02:09:11;;;;;;;61.90;5.67;;;;;;;;;;5076139;28;20827;-68
2022/08/26 02:11:38;;;;;;;62.17;5.57;;;;;;;;;;5076230;28;20522;-68
2022/08/26 02:14:09;;;;;;;61.80;5.77;;;;;;;;;;5075978;28;20516;-68
2022/08/26 02:16:40;;;;;;;62.87;6.33;;;;;;;;;;5076149;28;20457;-68
2022/08/26 02:19:10;;;;;;;60.30;4.97;;;;;;;;;;5075602;28;20485;-68
2022/08/26 02:21:38;;;;;;;62.07;5.80;;;;;;;;;;5075476;28;20997;-68
2022/08/26 02:24:10;;;;;;;60.37;5.17;;;;;;;;;;5076283;28;20792;-68
2022/08/26 02:26:38;;;;;;;65.13;7.60;;;;;;;;;;5076235;28;20533;-68
2022/08/26 02:29:07;;;;;;;62.03;5.83;;;;;;;;;;5075283;28;20538;-68
2022/08/26 02:31:34;;;;;;;62.27;6.50;;;;;;;;;;5075794;28;20541;-68
2022/08/26 02:34:09;;;;;;;63.33;5.87;;;;;;;;;;5075970;28;20494;-68
2022/08/26 02:36:36;;;;;;;62.10;6.07;;;;;;;;;;5076171;28;20454;-68
2022/08/26 02:39:04;;;;;;;65.43;5.93;;;;;;;;;;5075814;28;20460;-68
2022/08/26 02:41:32;;;;;;;63.33;6.30;;;;;;;;;;5075542;28;20459;-68
2022/08/26 02:43:59;;;;;;;62.57;6.60;;;;;;;;;;5076118;28;20548;-68
2022/08/26 02:46:26;;;;;;;63.27;5.47;;;;;;;;;;5076515;28;20446;-68
2022/08/26 02:48:53;;;;;;;60.50;4.83;;;;;;;;;;5076003;28;21007;-68
2022/08/26 02:51:22;;;;;;;62.17;5.80;;;;;;;;;;5075660;28;20538;-68
2022/08/26 02:53:49;;;;;;;61.70;5.57;;;;;;;;;;5074834;28;20482;-68
2022/08/26 02:56:16;;;;;;;62.33;5.30;;;;;;;;;;5075897;28;20457;-68
2022/08/26 02:58:43;;;;;;;61.60;5.03;;;;;;;;;;5075719;28;20460;-68
2022/08/26 03:01:20;;;;;;;62.30;5.67;;;;;;;;;;5076058;28;20955;-68
2022/08/26 03:03:47;;;;;;;65.80;6.60;;;;;;;;;;5076216;28;20470;-68
2022/08/26 03:06:14;;;;;;;61.90;6.40;;;;;;;;;;5076128;28;20454;-68
2022/08/26 03:08:43;;;;;;;61.57;5.30;;;;;;;;;;5075920;28;20446;-68
2022/08/26 03:11:11;;;;;;;60.87;5.20;;;;;;;;;;5078229;28;20450;-68
2022/08/26 03:13:38;;;;;;;62.80;6.40;;;;;;;;;;5079036;28;20486;-68
2022/08/26 03:16:06;;;;;;;62.00;5.50;;;;;;;;;;5080289;28;20449;-68
2022/08/26 03:18:33;;;;;;;61.80;5.80;;;;;;;;;;5079339;28;20451;-69
2022/08/26 03:21:05;;;;;;;61.23;5.50;;;;;;;;;;5078692;28;20452;-68
2022/08/26 03:23:32;;;;;;;61.03;5.50;;;;;;;;;;5079674;28;20470;-68
2022/08/26 03:26:01;;;;;;;62.97;5.80;;;;;;;;;;5078808;28;20473;-68
2022/08/26 03:28:28;;;;;;;65.20;6.47;;;;;;;;;;5079684;28;20453;-68
2022/08/26 03:30:55;;;;;;;61.33;5.33;;;;;;;;;;5078846;28;20455;-68
2022/08/26 03:33:22;;;;;;;62.67;4.80;;;;;;;;;;5079037;28;20491;-68
2022/08/26 03:35:50;;;;;;;61.90;6.07;;;;;;;;;;5079089;28;20457;-68
2022/08/26 03:38:18;;;;;;;62.80;6.00;;;;;;;;;;5078891;28;20841;-69
2022/08/26 03:40:45;;;;;;;61.97;5.73;;;;;;;;;;5079256;28;20457;-68
2022/08/26 03:43:15;;;;;;;61.57;6.37;;;;;;;;;;5079147;28;20462;-69
2022/08/26 03:45:42;;;;;;;61.47;5.73;;;;;;;;;;5078351;28;20538;-69
2022/08/26 03:48:10;;;;;;;62.67;6.23;;;;;;;;;;5077891;28;20442;-68
2022/08/26 03:50:37;;;;;;;62.17;6.07;;;;;;;;;;5079000;28;21024;-68
2022/08/26 03:53:05;;;;;;;61.67;5.37;;;;;;;;;;5078633;28;20489;-68
2022/08/26 03:55:33;;;;;;;62.43;6.23;;;;;;;;;;5078919;28;20456;-68
2022/08/26 03:58:00;;;;;;;62.57;5.37;;;;;;;;;;5078391;28;20954;-68
2022/08/26 04:00:29;;;;;;;61.97;5.60;;;;;;;;;;5078406;28;20450;-69
2022/08/26 04:02:56;;;;;;;63.07;6.10;;;;;;;;;;5078510;28;20466;-68
2022/08/26 04:05:24;;;;;;;61.60;5.60;;;;;;;;;;5078612;28;21026;-68
2022/08/26 04:07:51;;;;;;;62.00;6.43;;;;;;;;;;5078271;28;20508;-68
2022/08/26 04:10:20;;;;;;;61.90;5.60;;;;;;;;;;5078222;28;20822;-68
2022/08/26 04:12:48;;;;;;;61.60;6.20;;;;;;;;;;5078321;28;20509;-68
2022/08/26 04:15:17;;;;;;;63.10;6.00;;;;;;;;;;5078871;28;20958;-68
2022/08/26 04:17:46;;;;;;;62.37;5.70;;;;;;;;;;5078884;28;20454;-68
2022/08/26 04:20:14;;;;;;;64.33;6.37;;;;;;;;;;5077604;28;20454;-67
2022/08/26 04:22:41;;;;;;;61.23;6.27;;;;;;;;;;5077800;28;20469;-68
2022/08/26 04:25:09;;;;;;;69.80;6.67;;;;;;;;;;5078152;28;20558;-68
2022/08/26 04:27:36;;;;;;;64.93;5.97;;;;;;;;;;5078344;28;20485;-68
2022/08/26 04:30:04;;;;;;;62.07;6.03;;;;;;;;;;5077162;28;20473;-68
2022/08/26 04:32:31;;;;;;;62.03;6.27;;;;;;;;;;5077558;28;20565;-67
2022/08/26 04:35:00;;;;;;;61.30;5.70;;;;;;;;;;5077175;28;20971;-69
2022/08/26 04:37:27;;;;;;;61.37;5.70;;;;;;;;;;5077757;28;20531;-68
2022/08/26 04:39:54;;;;;;;61.40;5.33;;;;;;;;;;5077534;28;20505;-68
2022/08/26 04:42:21;;;;;;;62.40;6.10;;;;;;;;;;5077284;28;21047;-68
2022/08/26 04:44:48;;;;;;;61.20;5.63;;;;;;;;;;5077369;28;20458;-68
2022/08/26 04:47:15;;;;;;;61.80;6.43;;;;;;;;;;5077333;28;20446;-68
2022/08/26 04:49:42;;;;;;;61.47;5.70;;;;;;;;;;5077415;28;20468;-68
2022/08/26 04:52:11;;;;;;;61.97;5.53;;;;;;;;;;5077650;28;20481;-68
2022/08/26 04:54:38;;;;;;;61.47;6.13;;;;;;;;;;5077499;28;20482;-68
2022/08/26 04:57:06;;;;;;;61.30;5.70;;;;;;;;;;5077774;28;20673;-68
2022/08/26 04:59:33;;;;;;;62.50;6.43;;;;;;;;;;5076771;28;20541;-68
2022/08/26 05:02:00;;;;;;;62.50;6.30;;;;;;;;;;5077052;28;20840;-67
2022/08/26 05:04:27;;;;;;;60.77;5.13;;;;;;;;;;5077207;28;20790;-68
2022/08/26 05:06:54;;;;;;;62.80;5.60;;;;;;;;;;5077641;28;20449;-68
2022/08/26 05:09:23;;;;;;;62.50;6.67;;;;;;;;;;5076965;28;20443;-68
2022/08/26 05:11:50;;;;;;;60.80;5.47;;;;;;;;;;5077594;28;20470;-68
2022/08/26 05:14:17;;;;;;;61.57;6.20;;;;;;;;;;5077616;28;20513;-68
2022/08/26 05:16:44;;;;;;;62.80;6.83;;;;;;;;;;5077450;28;20457;-68
2022/08/26 05:19:12;;;;;;;62.70;5.27;;;;;;;;;;5076861;28;20536;-68
2022/08/26 05:21:39;;;;;;;61.63;5.03;;;;;;;;;;5076632;28;20448;-68
2022/08/26 05:24:06;;;;;;;62.87;6.17;;;;;;;;;;5077030;28;20446;-69
2022/08/26 05:26:34;;;;;;;61.60;5.70;;;;;;;;;;5077486;28;20534;-68
2022/08/26 05:29:02;;;;;;;62.87;6.77;;;;;;;;;;5075909;28;20982;-68
2022/08/26 05:31:31;;;;;;;62.20;6.10;;;;;;;;;;5077056;28;20462;-68
2022/08/26 05:33:58;;;;;;;62.87;6.30;;;;;;;;;;5074541;28;20494;-68
2022/08/26 05:36:26;;;;;;;63.83;7.10;;;;;;;;;;5074853;28;20447;-68
2022/08/26 05:38:54;;;;;;;62.00;6.80;;;;;;;;;;5074794;28;20451;-68
2022/08/26 05:41:26;;;;;;;62.17;6.10;;;;;;;;;;5076723;28;20542;-67
2022/08/26 05:43:56;;;;;;;63.77;6.57;;;;;;;;;;5076556;28;20451;-68
2022/08/26 05:46:23;;;;;;;62.80;6.17;;;;;;;;;;5076256;28;20548;-68
2022/08/26 05:48:50;;;;;;;62.00;5.90;;;;;;;;;;5075439;28;20447;-68
2022/08/26 05:51:17;;;;;;;61.10;5.60;;;;;;;;;;5075262;28;20447;-68
2022/08/26 05:53:44;;;;;;;62.93;6.80;;;;;;;;;;5075485;28;20491;-69
2022/08/26 05:56:12;;;;;;;65.57;6.67;;;;;;;;;;5074926;28;20454;-68
2022/08/26 05:58:40;;;;;;;62.40;6.40;;;;;;;;;;5074410;28;20712;-69
2022/08/26 06:01:13;;;;;;;62.47;6.43;;;;;;;;;;5074392;28;20452;-68
2022/08/26 06:03:41;;;;;;;62.60;6.17;;;;;;;;;;5073672;28;20463;-68
2022/08/26 06:06:09;;;;;;;61.70;6.33;;;;;;;;;;5073877;28;20452;-68
2022/08/26 06:08:37;;;;;;;63.30;7.10;;;;;;;;;;5072846;28;20454;-69
2022/08/26 06:11:05;;;;;;;62.87;6.47;;;;;;;;;;5073221;28;20534;-69
2022/08/26 06:13:33;;;;;;;62.30;6.40;;;;;;;;;;5072666;28;20489;-69
2022/08/26 06:16:01;;;;;;;63.23;7.70;;;;;;;;;;5072629;28;21030;-68
2022/08/26 06:18:33;;;;;;;62.07;6.73;;;;;;;;;;5072314;28;20458;-68
2022/08/26 06:21:01;;;;;;;63.00;6.30;;;;;;;;;;5072849;28;20470;-68
2022/08/26 06:26:14;;;;;;;62.53;6.90;;;;;;;;;;5074583;28;20553;-68
2022/08/26 06:28:42;;;;;;;63.00;6.90;;;;;;;;;;5073170;28;20451;-69
2022/08/26 06:31:09;;;;;;;64.47;7.03;;;;;;;;;;5073012;28;20474;-68
2022/08/26 06:33:38;;;;;;;68.93;6.17;;;;;;;;;;5072344;28;20501;-68
2022/08/26 06:36:05;;;;;;;62.50;6.00;;;;;;;;;;5072833;28;20454;-68
2022/08/26 06:38:32;;;;;;;63.20;6.37;;;;;;;;;;5071896;28;20451;-67
2022/08/26 06:40:59;;;;;;;62.27;6.43;;;;;;;;;;5072319;28;20450;-69
2022/08/26 06:43:28;;;;;;;63.20;6.63;;;;;;;;;;5072118;28;20463;-68
2022/08/26 06:46:01;;;;;;;62.87;6.40;;;;;;;;;;5075797;28;20504;-69
2022/08/26 06:48:28;;;;;;;62.07;6.40;;;;;;;;;;5075799;28;20458;-69
2022/08/26 06:51:03;;;;;;;61.73;5.80;;;;;;;;;;5075364;28;20454;-68
2022/08/26 06:53:30;;;;;;;62.80;5.63;;;;;;;;;;5075471;28;20486;-70
2022/08/26 06:55:57;;;;;;;62.70;5.93;;;;;;;;;;5075804;28;20534;-69
2022/08/26 06:58:24;;;;;;;61.17;5.83;;;;;;;;;;5075251;28;20439;-69
2022/08/26 07:00:51;;;;;;;61.70;6.27;;;;;;;;;;5075162;28;20826;-69
2022/08/26 07:03:20;;;;;;;64.70;6.03;;;;;;;;;;5075585;28;20469;-69
2022/08/26 07:05:48;;;;;;;70.33;6.03;;;;;;;;;;5075693;28;20458;-68
2022/08/26 07:08:17;;;;;;;60.80;4.60;;;;;;;;;;5075042;28;20447;-69
2022/08/26 07:10:44;;;;;;;60.40;5.10;;;;;;;;;;5074927;28;20443;-69
2022/08/26 07:13:11;;;;;;;61.20;5.00;;;;;;;;;;5075322;28;20473;-68
2022/08/26 07:15:40;;;;;;;62.47;5.80;;;;;;;;;;5075414;28;20478;-69
2022/08/26 07:18:07;;;;;;;60.60;4.40;;;;;;;;;;5074889;28;20470;-69
2022/08/26 07:20:38;;;;;;;60.67;5.50;;;;;;;;;;5075003;28;20447;-68
2022/08/26 07:23:05;;;;;;;61.40;5.00;;;;;;;;;;5074790;28;20468;-68
2022/08/26 07:25:33;;;;;;;60.97;4.87;;;;;;;;;;5075319;28;20450;-68
2022/08/26 07:28:00;;;;;;;59.87;4.20;;;;;;;;;;5074865;28;20462;-69
2022/08/26 07:30:27;;;;;;;59.97;4.60;;;;;;;;;;5075706;28;20447;-69
2022/08/26 07:32:56;;;;;;;61.10;4.50;;;;;;;;;;5075233;28;20529;-69
2022/08/26 07:35:23;;;;;;;58.80;3.80;;;;;;;;;;5075882;28;20491;-69
2022/08/26 07:37:50;;;;;;;59.90;4.07;;;;;;;;;;5074629;28;20443;-68
2022/08/26 07:40:17;;;;;;;59.80;5.13;;;;;;;;;;5074035;28;20443;-69
2022/08/26 07:42:46;;;;;;;59.77;3.60;;;;;;;;;;5074538;28;20555;-69
2022/08/26 07:45:13;;;;;;;59.83;4.53;;;;;;;;;;5074323;28;20439;-68
2022/08/26 07:47:40;;;;;;;60.87;5.53;;;;;;;;;;5074832;28;20439;-69
2022/08/26 07:50:08;;;;;;;60.90;5.00;;;;;;;;;;5074733;28;20806;-69
2022/08/26 07:52:36;;;;;;;60.17;4.77;;;;;;;;;;5074494;28;20545;-69
2022/08/26 07:55:03;;;;;;;65.37;5.10;;;;;;;;;;5074744;28;20483;-69
2022/08/26 07:57:30;;;;;;;60.17;4.00;;;;;;;;;;5075035;28;20530;-69
2022/08/26 08:00:00;;;;;;;62.07;4.80;;;;;;;;;;5076445;28;20455;-70
2022/08/26 08:02:28;;;;;;;60.23;4.53;;;;;;;;;;5076625;28;20475;-69
2022/08/26 08:04:55;;;;;;;59.60;4.20;;;;;;;;;;5077158;28;20442;-69
2022/08/26 08:07:23;;;;;;;59.97;3.93;;;;;;;;;;5076778;28;20501;-70
2022/08/26 08:09:50;;;;;;;60.10;3.73;;;;;;;;;;5076621;28;20444;-70
2022/08/26 08:12:17;;;;;;;59.23;4.23;;;;;;;;;;5076626;28;20465;-70
2022/08/26 08:14:45;;;;;;;59.30;3.87;;;;;;;;;;5076568;28;20483;-68
2022/08/26 08:17:14;;;;;;;59.30;3.60;;;;;;;;;;5076576;28;20948;-69
2022/08/26 08:19:41;;;;;;;60.00;3.93;;;;;;;;;;5076362;28;20443;-70
2022/08/26 08:22:09;;;;;;;58.87;3.97;;;;;;;;;;5076482;28;20566;-70
2022/08/26 08:24:36;;;;;;;59.40;4.00;;;;;;;;;;5076486;28;20444;-69
2022/08/26 08:27:03;;;;;;;58.67;3.60;;;;;;;;;;5077304;28;20534;-69
2022/08/26 08:29:30;;;;;;;59.20;3.97;;;;;;;;;;5075780;28;20554;-69
2022/08/26 08:31:58;;;;;;;58.67;3.83;;;;;;;;;;5076513;28;21016;-69
2022/08/26 08:34:27;;;;;;;58.47;3.60;;;;;;;;;;5077069;28;20479;-70
2022/08/26 08:36:54;;;;;;;59.07;4.10;;;;;;;;;;5076525;28;20819;-67
2022/08/26 08:39:21;;;;;;;59.50;4.77;;;;;;;;;;5075896;28;20542;-67
2022/08/26 08:41:52;;;;;;;58.90;3.60;;;;;;;;;;5075864;28;20469;-67
2022/08/26 08:44:20;;;;;;;59.27;3.93;;;;;;;;;;5075984;28;20515;-67
2022/08/26 08:46:49;;;;;;;59.40;3.90;;;;;;;;;;5076644;28;20819;-66
2022/08/26 08:49:17;;;;;;;59.00;3.43;;;;;;;;;;5076005;28;20448;-67
2022/08/26 08:51:47;;;;;;;61.47;3.63;;;;;;;;;;5076208;28;20477;-67
2022/08/26 08:54:14;;;;;;;59.90;4.20;;;;;;;;;;5076837;28;20581;-67
2022/08/26 08:56:45;;;;;;;59.40;3.93;;;;;;;;;;5076348;28;20461;-68
2022/08/26 08:59:14;;;;;;;59.97;3.80;;;;;;;;;;5075863;28;20443;-67
2022/08/26 09:01:49;;;;;;;58.77;3.67;;;;;;;;;;5076485;28;20451;-69
2022/08/26 09:04:37;;;;;;;59.50;4.17;;;;;;;;;;5076405;28;20446;-70
2022/08/26 09:07:09;;;;;;;58.50;3.57;;;;;;;;;;5071425;28;20456;-67
2022/08/26 09:09:37;;;;;;;59.33;4.30;;;;;;;;;;5075945;28;21026;-67
2022/08/26 09:12:07;;;;;;;59.57;3.97;;;;;;;;;;5075680;28;20542;-68
2022/08/26 09:14:34;;;;;;;61.13;3.80;;;;;;;;;;5076948;28;20533;-68
2022/08/26 09:17:05;;;;;;;58.90;3.50;;;;;;;;;;5076370;28;20444;-69
2022/08/26 09:19:37;;;;;;;59.97;3.70;;;;;;;;;;5076558;28;20505;-67
2022/08/26 09:22:05;;;;;;;59.10;3.90;;;;;;;;;;5075767;28;20870;-69
2022/08/26 09:24:34;;;;;;;58.73;3.70;;;;;;;;;;5075934;28;20444;-69
2022/08/26 09:27:01;;;;;;;59.27;4.00;;;;;;;;;;5076068;28;20443;-69
2022/08/26 09:29:30;;;;;;;60.10;3.80;;;;;;;;;;5075689;28;20447;-67
2022/08/26 09:32:12;;;;;;;60.00;3.43;;;;;;;;;;5075560;28;20475;-69
2022/08/26 09:34:52;;;;;;;60.57;4.30;;;;;;;;;;5075704;28;20487;-69
2022/08/26 09:37:32;;;;;;;59.30;3.77;;;;;;;;;;5075039;28;20485;-69
2022/08/26 09:40:11;;;;;;;60.30;4.50;;;;;;;;;;5075672;28;20447;-68
2022/08/26 09:42:39;;;;;;;59.47;3.97;;;;;;;;;;5076107;28;20477;-69
2022/08/26 09:45:09;;;;;;;59.30;4.17;;;;;;;;;;5075615;28;20449;-68
2022/08/26 09:47:38;;;;;;;61.10;3.60;;;;;;;;;;5075867;28;20454;-68
2022/08/26 09:50:10;;;;;;;59.33;4.50;;;;;;;;;;5075247;28;20443;-68
2022/08/26 09:52:39;;;;;;;59.40;4.20;;;;;;;;;;5075192;28;20467;-69
2022/08/26 09:55:11;;;;;;;60.40;4.03;;;;;;;;;;5075389;28;20483;-69
2022/08/26 09:57:45;;;;;;;60.10;4.90;;;;;;;;;;5074678;28;20931;-69
2022/08/26 10:00:23;;;;;;;58.97;3.73;;;;;;;;;;5074866;28;20434;-69
2022/08/26 10:02:50;;;;;;;58.50;3.90;;;;;;;;;;5075722;28;20471;-69
2022/08/26 10:05:27;;;;;;;60.00;4.03;;;;;;;;;;5074641;28;20435;-69
2022/08/26 10:07:56;;;;;;;58.77;3.90;;;;;;;;;;5074538;28;20463;-69
2022/08/26 10:10:25;;;;;;;59.33;4.50;;;;;;;;;;5074372;28;20454;-68
2022/08/26 10:12:58;;;;;;;59.00;4.00;;;;;;;;;;5072077;28;20474;-68
2022/08/26 10:15:27;;;;;;;57.97;3.47;;;;;;;;;;5072509;28;20479;-69
2022/08/26 10:17:58;;;;;;;61.43;4.23;;;;;;;;;;5072920;28;20451;-68
2022/08/26 10:20:27;;;;;;;58.80;3.87;;;;;;;;;;5077353;28;20958;-67
2022/08/26 10:22:58;;;;;;;58.70;3.93;;;;;;;;;;5077809;28;20561;-67
2022/08/26 10:25:28;;;;;;;58.47;3.63;;;;;;;;;;5078412;28;20765;-67
2022/08/26 10:28:00;;;;;;;57.50;3.77;;;;;;;;;;5077511;28;20453;-66
2022/08/26 10:30:31;;;;;;;57.73;3.40;;;;;;;;;;5078015;28;20497;-67
2022/08/26 10:33:03;;;;;;;57.33;3.70;;;;;;;;;;5077096;28;20471;-67
2022/08/26 10:35:31;;;;;;;57.87;3.70;;;;;;;;;;5077685;28;20490;-68
2022/08/26 10:38:03;;;;;;;58.93;4.10;;;;;;;;;;5076958;28;20446;-67
2022/08/26 10:40:35;;;;;;;57.63;3.43;;;;;;;;;;5076929;28;20521;-66
2022/08/26 10:43:04;;;;;;;58.10;3.80;;;;;;;;;;5075149;28;20463;-66
2022/08/26 10:45:43;;;;;;;58.47;3.50;;;;;;;;;;5075060;28;20443;-66
2022/08/26 10:48:13;;;;;;;58.20;3.50;;;;;;;;;;5075379;28;20520;-66
2022/08/26 10:50:41;;;;;;;58.37;3.30;;;;;;;;;;5075214;28;20483;-67
2022/08/26 10:53:14;;;;;;;60.47;3.67;;;;;;;;;;5075383;28;20474;-69
2022/08/26 10:55:43;;;;;;;58.50;3.60;;;;;;;;;;5075538;28;20518;-68
2022/08/26 10:58:22;;;;;;;58.40;2.87;;;;;;;;;;5075192;28;20451;-68
2022/08/26 11:03:39;;;;;;;58.10;3.00;;;;;;;;;;5075963;28;20492;-68
2022/08/26 11:06:16;;;;;;;58.37;3.40;;;;;;;;;;5077360;28;20815;-68
2022/08/26 11:08:47;;;;;;;59.13;3.70;;;;;;;;;;5077185;28;20443;-68
2022/08/26 11:11:41;;;;;;;58.87;3.20;;;;;;;;;;5077825;28;20554;-69
2022/08/26 11:14:09;;;;;;;60.50;4.13;;;;;;;;;;5078566;28;20542;-68
2022/08/26 11:16:37;;;;;;;57.10;3.00;;;;;;;;;;5078524;28;20486;-68
2022/08/26 11:19:05;;;;;;;57.67;3.10;;;;;;;;;;5076877;28;20473;-68
2022/08/26 11:21:47;;;;;;;59.40;3.63;;;;;;;;;;5077690;28;20534;-68
2022/08/26 11:24:33;;;;;;;57.30;3.13;;;;;;;;;;5076832;28;20449;-68
2022/08/26 11:27:01;;;;;;;57.27;3.00;;;;;;;;;;5075565;28;20448;-68
2022/08/26 11:29:55;;;;;;;59.13;3.77;;;;;;;;;;5077522;28;20501;-68
2022/08/26 11:32:26;;;;;;;58.20;3.60;;;;;;;;;;5041591;28;20492;-69
2022/08/26 11:34:56;;;;;;;60.33;3.60;;;;;;;;;;5078143;28;20477;-69
2022/08/26 11:37:26;;;;;;;59.00;4.03;;;;;;;;;;5077216;28;20509;-68
2022/08/26 11:39:54;;;;;;;58.60;3.90;;;;;;;;;;5075471;28;20462;-68
2022/08/26 11:42:28;;;;;;;59.30;3.77;;;;;;;;;;5074458;28;20587;-68
2022/08/26 11:44:56;;;;;;;59.90;4.80;;;;;;;;;;5074148;28;20821;-68
2022/08/26 11:47:27;;;;;;;60.60;3.70;;;;;;;;;;5074189;28;20444;-68
2022/08/26 11:50:06;;;;;;;63.60;3.80;;;;;;;;;;5074043;28;20443;-67
2022/08/26 11:52:33;;;;;;;62.10;3.87;;;;;;;;;;5074870;28;20471;-67
2022/08/26 11:55:01;;;;;;;58.97;4.50;;;;;;;;;;5075818;28;20451;-68
2022/08/26 11:57:30;;;;;;;59.57;4.30;;;;;;;;;;5076097;28;20881;-68
2022/08/26 11:59:58;;;;;;;61.37;4.70;;;;;;;;;;5076176;28;20454;-69
2022/08/26 12:02:26;;;;;;;59.47;4.53;;;;;;;;;;5076423;28;20470;-68
2022/08/26 12:04:54;;;;;;;59.67;4.53;;;;;;;;;;5076922;28;21015;-68
2022/08/26 12:07:23;;;;;;;61.60;4.93;;;;;;;;;;5077584;28;20537;-68
2022/08/26 12:09:55;;;;;;;61.40;4.50;;;;;;;;;;5076872;28;20450;-68
2022/08/26 12:12:24;;;;;;;59.57;4.73;;;;;;;;;;5077089;28;20471;-68
2022/08/26 12:15:06;;;;;;;64.97;4.27;;;;;;;;;;5076876;28;20450;-68
2022/08/26 12:17:33;;;;;;;60.20;4.87;;;;;;;;;;5076135;28;20819;-68
2022/08/26 12:20:00;;;;;;;65.70;4.53;;;;;;;;;;5076596;28;20759;-68
2022/08/26 12:22:28;;;;;;;59.40;4.33;;;;;;;;;;5076637;28;20543;-68
2022/08/26 12:24:57;;;;;;;62.90;6.13;;;;;;;;;;5077073;28;20534;-68
2022/08/26 12:27:26;;;;;;;60.50;4.97;;;;;;;;;;5076841;28;20443;-68
2022/08/26 12:30:08;;;;;;;60.07;4.97;;;;;;;;;;5076601;28;20515;-68
2022/08/26 12:32:37;;;;;;;58.90;3.90;;;;;;;;;;5075684;28;20524;-68
2022/08/26 12:35:07;;;;;;;59.20;3.73;;;;;;;;;;5074853;28;20455;-68
2022/08/26 12:37:35;;;;;;;58.63;3.77;;;;;;;;;;5073589;28;20486;-68
2022/08/26 12:40:21;;;;;;;63.80;4.17;;;;;;;;;;5073179;28;20546;-68
2022/08/26 12:42:48;;;;;;;60.50;3.60;;;;;;;;;;5073532;28;20467;-68
2022/08/26 12:45:26;;;;;;;59.40;3.73;;;;;;;;;;5073503;28;20449;-68
2022/08/26 12:47:55;;;;;;;58.50;3.47;;;;;;;;;;5074978;28;20447;-68
2022/08/26 12:50:24;;;;;;;63.77;5.00;;;;;;;;;;5075215;28;20451;-69
2022/08/26 12:52:54;;;;;;;58.00;3.80;;;;;;;;;;5075103;28;20464;-69
2022/08/26 12:55:23;;;;;;;57.77;3.70;;;;;;;;;;5075908;28;21037;-69
2022/08/26 12:57:50;;;;;;;57.50;3.80;;;;;;;;;;5076816;28;20542;-69
2022/08/26 13:00:29;;;;;;;57.63;3.70;;;;;;;;;;5076725;28;20897;-69
2022/08/26 13:02:57;;;;;;;58.07;3.00;;;;;;;;;;5075878;28;20471;-69
2022/08/26 13:05:26;;;;;;;56.93;2.70;;;;;;;;;;5077538;28;20697;-69
2022/08/26 13:08:09;;;;;;;57.93;3.40;;;;;;;;;;5076245;28;20455;-69
2022/08/26 13:10:37;;;;;;;58.37;3.53;;;;;;;;;;5076034;28;20447;-69
2022/08/26 13:13:04;;;;;;;57.47;3.27;;;;;;;;;;5077283;28;20554;-68
2022/08/26 13:15:33;;;;;;;57.70;3.70;;;;;;;;;;5075354;28;20575;-69
2022/08/26 13:18:01;;;;;;;57.30;3.27;;;;;;;;;;5075113;28;20897;-69
2022/08/26 13:20:29;;;;;;;57.60;3.67;;;;;;;;;;5074428;28;20455;-68
2022/08/26 13:22:56;;;;;;;59.00;4.10;;;;;;;;;;5074007;28;20467;-68
2022/08/26 13:25:23;;;;;;;59.00;3.87;;;;;;;;;;5074679;28;20448;-69
2022/08/26 13:27:50;;;;;;;59.27;4.10;;;;;;;;;;5074771;28;20458;-69
2022/08/26 13:30:17;;;;;;;59.77;3.63;;;;;;;;;;5073381;28;20448;-69
2022/08/26 13:32:46;;;;;;;58.60;3.37;;;;;;;;;;5073330;28;20483;-68
2022/08/26 13:35:13;;;;;;;57.13;3.20;;;;;;;;;;5073070;28;20857;-68
2022/08/26 13:37:40;;;;;;;58.67;3.90;;;;;;;;;;5072472;28;20873;-68
2022/08/26 13:40:08;;;;;;;58.47;3.40;;;;;;;;;;5072305;28;20439;-69
2022/08/26 13:42:35;;;;;;;60.00;4.03;;;;;;;;;;5072019;28;20473;-68
2022/08/26 13:45:02;;;;;;;59.33;4.00;;;;;;;;;;5072624;28;20448;-69
2022/08/26 13:47:30;;;;;;;58.27;3.63;;;;;;;;;;5073009;28;20445;-69
2022/08/26 13:49:58;;;;;;;57.47;3.33;;;;;;;;;;5072229;28;20455;-68
2022/08/26 13:52:25;;;;;;;58.17;3.87;;;;;;;;;;5072033;28;20458;-67
2022/08/26 13:54:52;;;;;;;58.07;4.10;;;;;;;;;;5072369;28;20447;-68
2022/08/26 13:57:23;;;;;;;57.60;3.50;;;;;;;;;;5071660;28;20489;-67
2022/08/26 13:59:50;;;;;;;58.57;3.30;;;;;;;;;;5072954;28;20455;-68
2022/08/26 14:02:17;;;;;;;58.07;3.53;;;;;;;;;;5072800;28;20502;-67
2022/08/26 14:04:44;;;;;;;57.70;3.50;;;;;;;;;;5072489;28;20526;-68
2022/08/26 14:07:13;;;;;;;59.60;4.23;;;;;;;;;;5074409;28;20526;-67
2022/08/26 14:09:40;;;;;;;60.93;6.00;;;;;;;;;;5075288;28;20534;-67
2022/08/26 14:12:07;;;;;;;59.00;4.00;;;;;;;;;;5075489;28;20566;-68
2022/08/26 14:14:34;;;;;;;57.50;3.10;;;;;;;;;;5074975;28;20569;-69
2022/08/26 14:17:01;;;;;;;60.67;4.40;;;;;;;;;;5075876;28;21101;-67
2022/08/26 14:19:29;;;;;;;59.00;3.93;;;;;;;;;;5073994;28;20538;-68
2022/08/26 14:21:59;;;;;;;57.70;3.70;;;;;;;;;;5073161;28;20467;-68
2022/08/26 14:24:27;;;;;;;59.20;4.10;;;;;;;;;;5072956;28;20455;-68
2022/08/26 14:26:55;;;;;;;60.07;3.80;;;;;;;;;;5071782;28;20822;-68
2022/08/26 14:29:22;;;;;;;58.33;3.67;;;;;;;;;;5071551;28;20538;-67
2022/08/26 14:31:49;;;;;;;62.60;3.50;;;;;;;;;;5071347;28;20915;-68
2022/08/26 14:34:16;;;;;;;57.90;3.20;;;;;;;;;;5071506;28;20458;-67
2022/08/26 14:36:43;;;;;;;60.00;4.10;;;;;;;;;;5071454;28;20479;-67
2022/08/26 14:39:11;;;;;;;59.33;3.47;;;;;;;;;;5071844;28;20453;-67
2022/08/26 14:41:41;;;;;;;59.00;3.40;;;;;;;;;;5072664;28;20453;-66
2022/08/26 14:44:11;;;;;;;58.80;3.87;;;;;;;;;;5073777;28;20538;-67
2022/08/26 14:46:42;;;;;;;59.60;4.20;;;;;;;;;;5074423;28;20475;-66